sensor_id;sensor_type;location;lat;lon;timestamp;P1;durP1;ratioP1;P2;durP2;ratioP2
16310;SDS011;8264;48.510;8.872;2022-09-12T00:01:20;9.17;;;8.27;;
16310;SDS011;8264;48.510;8.872;2022-09-12T00:03:50;9.77;;;8.30;;
16310;SDS011;8264;48.510;8.872;2022-09-12T00:06:18;8.00;;;7.20;;
16310;SDS011;8264;48.510;8.872;2022-09-12T00:08:47;9.40;;;8.50;;
16310;SDS011;8264;48.510;8.872;2022-09-12T00:11:14;10.07;;;7.50;;
16310;SDS011;8264;48.510;8.872;2022-09-12T00:13:41;8.87;;;8.00;;
16310;SDS011;8264;48.510;8.872;2022-09-12T00:16:12;9.47;;;8.27;;
16310;SDS011;8264;48.510;8.872;2022-09-12T00:18:41;9.60;;;8.50;;
16310;SDS011;8264;48.510;8.872;2022-09-12T00:21:07;10.70;;;8.80;;
16310;SDS011;8264;48.510;8.872;2022-09-12T00:23:34;9.37;;;8.57;;
16310;SDS011;8264;48.510;8.872;2022-09-12T00:26:02;9.27;;;8.47;;
16310;SDS011;8264;48.510;8.872;2022-09-12T00:28:29;10.27;;;9.30;;
16310;SDS011;8264;48.510;8.872;2022-09-12T00:30:56;9.80;;;8.80;;
16310;SDS011;8264;48.510;8.872;2022-09-12T00:33:22;9.00;;;8.00;;
16310;SDS011;8264;48.510;8.872;2022-09-12T00:35:49;10.40;;;7.97;;
16310;SDS011;8264;48.510;8.872;2022-09-12T00:38:17;9.53;;;8.63;;
16310;SDS011;8264;48.510;8.872;2022-09-12T00:40:45;10.17;;;9.17;;
16310;SDS011;8264;48.510;8.872;2022-09-12T00:43:14;9.30;;;8.27;;
16310;SDS011;8264;48.510;8.872;2022-09-12T00:45:56;10.30;;;9.40;;
16310;SDS011;8264;48.510;8.872;2022-09-12T00:48:24;10.07;;;9.07;;
16310;SDS011;8264;48.510;8.872;2022-09-12T00:50:54;12.63;;;8.83;;
16310;SDS011;8264;48.510;8.872;2022-09-12T00:53:21;9.80;;;8.60;;
16310;SDS011;8264;48.510;8.872;2022-09-12T00:55:48;9.40;;;8.57;;
16310;SDS011;8264;48.510;8.872;2022-09-12T00:58:17;9.47;;;8.47;;
16310;SDS011;8264;48.510;8.872;2022-09-12T01:00:45;9.83;;;8.93;;
16310;SDS011;8264;48.510;8.872;2022-09-12T01:03:13;9.13;;;8.33;;
16310;SDS011;8264;48.510;8.872;2022-09-12T01:05:43;9.33;;;8.33;;
16310;SDS011;8264;48.510;8.872;2022-09-12T01:08:14;8.70;;;7.90;;
16310;SDS011;8264;48.510;8.872;2022-09-12T01:10:41;8.40;;;7.60;;
16310;SDS011;8264;48.510;8.872;2022-09-12T01:13:08;9.20;;;8.30;;
16310;SDS011;8264;48.510;8.872;2022-09-12T01:15:37;9.80;;;8.80;;
16310;SDS011;8264;48.510;8.872;2022-09-12T01:18:07;8.33;;;7.63;;
16310;SDS011;8264;48.510;8.872;2022-09-12T01:20:43;7.33;;;6.63;;
16310;SDS011;8264;48.510;8.872;2022-09-12T01:26:49;7.97;;;7.27;;
16310;SDS011;8264;48.510;8.872;2022-09-12T01:29:43;8.13;;;7.33;;
16310;SDS011;8264;48.510;8.872;2022-09-12T01:32:24;9.00;;;7.47;;
16310;SDS011;8264;48.510;8.872;2022-09-12T01:34:57;8.43;;;7.63;;
16310;SDS011;8264;48.510;8.872;2022-09-12T01:37:34;8.77;;;7.90;;
16310;SDS011;8264;48.510;8.872;2022-09-12T01:40:06;7.97;;;7.17;;
16310;SDS011;8264;48.510;8.872;2022-09-12T01:42:40;7.67;;;6.97;;
16310;SDS011;8264;48.510;8.872;2022-09-12T01:45:11;7.97;;;7.17;;
16310;SDS011;8264;48.510;8.872;2022-09-12T01:47:44;7.77;;;6.97;;
16310;SDS011;8264;48.510;8.872;2022-09-12T01:50:12;8.17;;;7.43;;
16310;SDS011;8264;48.510;8.872;2022-09-12T01:52:43;8.77;;;7.97;;
16310;SDS011;8264;48.510;8.872;2022-09-12T01:55:14;8.53;;;7.57;;
16310;SDS011;8264;48.510;8.872;2022-09-12T01:57:44;9.03;;;7.83;;
16310;SDS011;8264;48.510;8.872;2022-09-12T02:00:13;8.47;;;7.67;;
16310;SDS011;8264;48.510;8.872;2022-09-12T02:02:41;8.70;;;7.43;;
16310;SDS011;8264;48.510;8.872;2022-09-12T02:05:15;7.90;;;7.20;;
16310;SDS011;8264;48.510;8.872;2022-09-12T02:07:46;8.47;;;7.30;;
16310;SDS011;8264;48.510;8.872;2022-09-12T02:10:15;7.70;;;6.70;;
16310;SDS011;8264;48.510;8.872;2022-09-12T02:12:43;8.00;;;7.20;;
16310;SDS011;8264;48.510;8.872;2022-09-12T02:15:13;11.27;;;7.37;;
16310;SDS011;8264;48.510;8.872;2022-09-12T02:17:41;8.70;;;7.67;;
16310;SDS011;8264;48.510;8.872;2022-09-12T02:20:11;7.70;;;7.00;;
16310;SDS011;8264;48.510;8.872;2022-09-12T02:22:40;7.77;;;7.07;;
16310;SDS011;8264;48.510;8.872;2022-09-12T02:25:08;8.13;;;7.43;;
16310;SDS011;8264;48.510;8.872;2022-09-12T02:27:37;7.43;;;6.73;;
16310;SDS011;8264;48.510;8.872;2022-09-12T02:30:06;7.50;;;6.80;;
16310;SDS011;8264;48.510;8.872;2022-09-12T02:32:35;7.83;;;7.00;;
16310;SDS011;8264;48.510;8.872;2022-09-12T02:35:05;9.20;;;6.90;;
16310;SDS011;8264;48.510;8.872;2022-09-12T02:37:40;7.63;;;6.83;;
16310;SDS011;8264;48.510;8.872;2022-09-12T02:40:11;7.77;;;7.07;;
16310;SDS011;8264;48.510;8.872;2022-09-12T02:42:38;6.87;;;6.23;;
16310;SDS011;8264;48.510;8.872;2022-09-12T02:45:05;7.43;;;6.73;;
16310;SDS011;8264;48.510;8.872;2022-09-12T02:47:33;8.40;;;7.30;;
16310;SDS011;8264;48.510;8.872;2022-09-12T02:50:04;8.33;;;6.83;;
16310;SDS011;8264;48.510;8.872;2022-09-12T02:52:32;8.17;;;6.80;;
16310;SDS011;8264;48.510;8.872;2022-09-12T02:54:58;7.53;;;6.73;;
16310;SDS011;8264;48.510;8.872;2022-09-12T02:57:25;7.50;;;6.60;;
16310;SDS011;8264;48.510;8.872;2022-09-12T02:59:52;7.13;;;6.43;;
16310;SDS011;8264;48.510;8.872;2022-09-12T03:02:24;7.80;;;6.27;;
16310;SDS011;8264;48.510;8.872;2022-09-12T03:05:08;7.13;;;6.53;;
16310;SDS011;8264;48.510;8.872;2022-09-12T03:08:05;6.43;;;5.83;;
16310;SDS011;8264;48.510;8.872;2022-09-12T03:10:40;6.60;;;6.00;;
16310;SDS011;8264;48.510;8.872;2022-09-12T03:13:17;9.23;;;5.93;;
16310;SDS011;8264;48.510;8.872;2022-09-12T03:15:48;7.03;;;6.33;;
16310;SDS011;8264;48.510;8.872;2022-09-12T03:18:23;6.23;;;5.63;;
16310;SDS011;8264;48.510;8.872;2022-09-12T03:21:01;6.43;;;5.83;;
16310;SDS011;8264;48.510;8.872;2022-09-12T03:23:30;6.80;;;6.17;;
16310;SDS011;8264;48.510;8.872;2022-09-12T03:26:00;7.13;;;6.53;;
16310;SDS011;8264;48.510;8.872;2022-09-12T03:28:28;8.40;;;6.43;;
16310;SDS011;8264;48.510;8.872;2022-09-12T03:30:56;6.63;;;6.00;;
16310;SDS011;8264;48.510;8.872;2022-09-12T03:33:24;7.30;;;6.60;;
16310;SDS011;8264;48.510;8.872;2022-09-12T03:35:51;6.10;;;5.60;;
16310;SDS011;8264;48.510;8.872;2022-09-12T03:38:19;6.90;;;6.30;;
16310;SDS011;8264;48.510;8.872;2022-09-12T03:40:46;6.30;;;5.73;;
16310;SDS011;8264;48.510;8.872;2022-09-12T03:43:12;6.20;;;5.60;;
16310;SDS011;8264;48.510;8.872;2022-09-12T03:45:39;8.50;;;6.27;;
16310;SDS011;8264;48.510;8.872;2022-09-12T03:48:05;7.00;;;6.30;;
16310;SDS011;8264;48.510;8.872;2022-09-12T03:50:32;6.70;;;5.93;;
16310;SDS011;8264;48.510;8.872;2022-09-12T03:52:58;8.60;;;6.00;;
16310;SDS011;8264;48.510;8.872;2022-09-12T03:55:26;6.00;;;5.50;;
16310;SDS011;8264;48.510;8.872;2022-09-12T03:57:53;5.97;;;5.47;;
16310;SDS011;8264;48.510;8.872;2022-09-12T04:00:20;6.03;;;5.53;;
16310;SDS011;8264;48.510;8.872;2022-09-12T04:02:47;6.07;;;5.40;;
16310;SDS011;8264;48.510;8.872;2022-09-12T04:05:13;6.00;;;5.50;;
16310;SDS011;8264;48.510;8.872;2022-09-12T04:07:40;6.50;;;5.90;;
16310;SDS011;8264;48.510;8.872;2022-09-12T04:10:06;6.43;;;5.83;;
16310;SDS011;8264;48.510;8.872;2022-09-12T04:12:35;6.13;;;5.47;;
16310;SDS011;8264;48.510;8.872;2022-09-12T04:15:03;5.43;;;4.93;;
16310;SDS011;8264;48.510;8.872;2022-09-12T04:17:32;5.23;;;4.73;;
16310;SDS011;8264;48.510;8.872;2022-09-12T04:19:58;5.90;;;5.30;;
16310;SDS011;8264;48.510;8.872;2022-09-12T04:22:25;6.83;;;5.30;;
16310;SDS011;8264;48.510;8.872;2022-09-12T04:24:52;6.53;;;5.60;;
16310;SDS011;8264;48.510;8.872;2022-09-12T04:27:18;5.93;;;5.20;;
16310;SDS011;8264;48.510;8.872;2022-09-12T04:29:46;5.23;;;4.73;;
16310;SDS011;8264;48.510;8.872;2022-09-12T04:32:12;6.57;;;5.20;;
16310;SDS011;8264;48.510;8.872;2022-09-12T04:34:39;6.03;;;4.77;;
16310;SDS011;8264;48.510;8.872;2022-09-12T04:37:05;5.43;;;4.93;;
16310;SDS011;8264;48.510;8.872;2022-09-12T04:39:32;5.90;;;5.30;;
16310;SDS011;8264;48.510;8.872;2022-09-12T04:41:59;6.73;;;5.63;;
16310;SDS011;8264;48.510;8.872;2022-09-12T04:44:25;7.57;;;5.40;;
16310;SDS011;8264;48.510;8.872;2022-09-12T04:46:53;5.90;;;5.37;;
16310;SDS011;8264;48.510;8.872;2022-09-12T04:49:19;6.43;;;5.83;;
16310;SDS011;8264;48.510;8.872;2022-09-12T04:51:46;6.67;;;5.63;;
16310;SDS011;8264;48.510;8.872;2022-09-12T04:54:13;5.57;;;5.07;;
16310;SDS011;8264;48.510;8.872;2022-09-12T04:56:41;5.73;;;5.23;;
16310;SDS011;8264;48.510;8.872;2022-09-12T04:59:09;5.20;;;4.70;;
16310;SDS011;8264;48.510;8.872;2022-09-12T05:01:35;6.60;;;5.70;;
16310;SDS011;8264;48.510;8.872;2022-09-12T05:04:03;7.23;;;5.43;;
16310;SDS011;8264;48.510;8.872;2022-09-12T05:06:31;6.33;;;5.73;;
16310;SDS011;8264;48.510;8.872;2022-09-12T05:08:59;6.40;;;5.80;;
16310;SDS011;8264;48.510;8.872;2022-09-12T05:11:27;9.80;;;5.40;;
16310;SDS011;8264;48.510;8.872;2022-09-12T05:13:54;5.83;;;5.33;;
16310;SDS011;8264;48.510;8.872;2022-09-12T05:16:21;5.67;;;5.17;;
16310;SDS011;8264;48.510;8.872;2022-09-12T05:18:49;5.90;;;5.30;;
16310;SDS011;8264;48.510;8.872;2022-09-12T05:21:17;5.73;;;5.23;;
16310;SDS011;8264;48.510;8.872;2022-09-12T05:23:45;6.87;;;5.90;;
16310;SDS011;8264;48.510;8.872;2022-09-12T05:26:13;6.70;;;5.90;;
16310;SDS011;8264;48.510;8.872;2022-09-12T05:28:40;6.13;;;5.53;;
16310;SDS011;8264;48.510;8.872;2022-09-12T05:31:08;25.50;;;22.83;;
16310;SDS011;8264;48.510;8.872;2022-09-12T05:33:37;30.47;;;24.67;;
16310;SDS011;8264;48.510;8.872;2022-09-12T05:36:04;9.23;;;7.40;;
16310;SDS011;8264;48.510;8.872;2022-09-12T05:38:34;6.20;;;5.50;;
16310;SDS011;8264;48.510;8.872;2022-09-12T05:41:02;5.70;;;5.17;;
16310;SDS011;8264;48.510;8.872;2022-09-12T05:43:30;6.10;;;5.60;;
16310;SDS011;8264;48.510;8.872;2022-09-12T05:45:59;6.23;;;5.63;;
16310;SDS011;8264;48.510;8.872;2022-09-12T05:48:26;6.97;;;5.70;;
16310;SDS011;8264;48.510;8.872;2022-09-12T05:50:57;6.33;;;5.70;;
16310;SDS011;8264;48.510;8.872;2022-09-12T05:53:25;6.07;;;5.47;;
16310;SDS011;8264;48.510;8.872;2022-09-12T05:56:01;10.17;;;6.57;;
16310;SDS011;8264;48.510;8.872;2022-09-12T05:58:29;6.47;;;5.13;;
16310;SDS011;8264;48.510;8.872;2022-09-12T06:01:00;5.33;;;4.83;;
16310;SDS011;8264;48.510;8.872;2022-09-12T06:03:27;5.67;;;4.90;;
16310;SDS011;8264;48.510;8.872;2022-09-12T06:05:53;4.30;;;3.90;;
16310;SDS011;8264;48.510;8.872;2022-09-12T06:08:20;15.17;;;7.17;;
16310;SDS011;8264;48.510;8.872;2022-09-12T06:10:46;41.07;;;8.50;;
16310;SDS011;8264;48.510;8.872;2022-09-12T06:13:14;20.93;;;8.27;;
16310;SDS011;8264;48.510;8.872;2022-09-12T06:15:41;18.93;;;8.83;;
16310;SDS011;8264;48.510;8.872;2022-09-12T06:18:08;12.43;;;9.00;;
16310;SDS011;8264;48.510;8.872;2022-09-12T06:20:34;14.20;;;8.10;;
16310;SDS011;8264;48.510;8.872;2022-09-12T06:23:01;12.40;;;6.73;;
16310;SDS011;8264;48.510;8.872;2022-09-12T06:25:27;12.03;;;6.10;;
16310;SDS011;8264;48.510;8.872;2022-09-12T06:27:54;5.30;;;4.90;;
16310;SDS011;8264;48.510;8.872;2022-09-12T06:30:22;7.80;;;4.43;;
16310;SDS011;8264;48.510;8.872;2022-09-12T06:32:48;4.60;;;4.20;;
16310;SDS011;8264;48.510;8.872;2022-09-12T06:35:15;4.73;;;3.97;;
16310;SDS011;8264;48.510;8.872;2022-09-12T06:37:42;3.67;;;3.37;;
16310;SDS011;8264;48.510;8.872;2022-09-12T06:40:09;5.53;;;4.27;;
16310;SDS011;8264;48.510;8.872;2022-09-12T06:42:36;5.33;;;4.87;;
16310;SDS011;8264;48.510;8.872;2022-09-12T06:45:03;6.30;;;5.70;;
16310;SDS011;8264;48.510;8.872;2022-09-12T06:47:31;7.33;;;6.57;;
16310;SDS011;8264;48.510;8.872;2022-09-12T06:49:57;5.40;;;4.90;;
16310;SDS011;8264;48.510;8.872;2022-09-12T06:52:24;5.83;;;5.10;;
16310;SDS011;8264;48.510;8.872;2022-09-12T06:54:50;6.03;;;5.30;;
16310;SDS011;8264;48.510;8.872;2022-09-12T06:57:17;5.90;;;5.27;;
16310;SDS011;8264;48.510;8.872;2022-09-12T06:59:43;6.67;;;5.70;;
16310;SDS011;8264;48.510;8.872;2022-09-12T07:02:10;5.80;;;5.30;;
16310;SDS011;8264;48.510;8.872;2022-09-12T07:04:37;5.80;;;5.30;;
16310;SDS011;8264;48.510;8.872;2022-09-12T07:07:04;8.57;;;6.40;;
16310;SDS011;8264;48.510;8.872;2022-09-12T07:09:30;8.00;;;7.30;;
16310;SDS011;8264;48.510;8.872;2022-09-12T07:11:57;7.33;;;6.63;;
16310;SDS011;8264;48.510;8.872;2022-09-12T07:14:24;7.80;;;6.87;;
16310;SDS011;8264;48.510;8.872;2022-09-12T07:16:51;7.30;;;6.60;;
16310;SDS011;8264;48.510;8.872;2022-09-12T07:19:17;5.80;;;5.23;;
16310;SDS011;8264;48.510;8.872;2022-09-12T07:21:45;7.90;;;7.20;;
16310;SDS011;8264;48.510;8.872;2022-09-12T07:24:11;8.00;;;7.17;;
16310;SDS011;8264;48.510;8.872;2022-09-12T07:26:38;7.97;;;6.93;;
16310;SDS011;8264;48.510;8.872;2022-09-12T07:29:06;6.13;;;5.53;;
16310;SDS011;8264;48.510;8.872;2022-09-12T07:31:33;5.63;;;5.13;;
16310;SDS011;8264;48.510;8.872;2022-09-12T07:33:59;6.67;;;6.17;;
16310;SDS011;8264;48.510;8.872;2022-09-12T07:36:30;7.70;;;6.53;;
16310;SDS011;8264;48.510;8.872;2022-09-12T07:38:58;7.27;;;6.13;;
16310;SDS011;8264;48.510;8.872;2022-09-12T07:41:25;7.40;;;6.67;;
16310;SDS011;8264;48.510;8.872;2022-09-12T07:43:53;7.00;;;6.40;;
16310;SDS011;8264;48.510;8.872;2022-09-12T07:46:20;6.60;;;6.00;;
16310;SDS011;8264;48.510;8.872;2022-09-12T07:48:50;7.87;;;7.17;;
16310;SDS011;8264;48.510;8.872;2022-09-12T07:51:17;7.10;;;6.50;;
16310;SDS011;8264;48.510;8.872;2022-09-12T07:53:45;7.63;;;6.93;;
16310;SDS011;8264;48.510;8.872;2022-09-12T07:56:14;8.77;;;7.87;;
16310;SDS011;8264;48.510;8.872;2022-09-12T07:58:41;8.37;;;7.50;;
16310;SDS011;8264;48.510;8.872;2022-09-12T08:01:09;8.57;;;7.67;;
16310;SDS011;8264;48.510;8.872;2022-09-12T08:03:37;7.60;;;7.00;;
16310;SDS011;8264;48.510;8.872;2022-09-12T08:06:05;8.10;;;7.33;;
16310;SDS011;8264;48.510;8.872;2022-09-12T08:08:32;9.73;;;8.77;;
16310;SDS011;8264;48.510;8.872;2022-09-12T08:10:59;8.97;;;8.17;;
16310;SDS011;8264;48.510;8.872;2022-09-12T08:13:27;8.80;;;8.00;;
16310;SDS011;8264;48.510;8.872;2022-09-12T08:15:56;9.23;;;8.33;;
16310;SDS011;8264;48.510;8.872;2022-09-12T08:18:23;8.87;;;8.03;;
16310;SDS011;8264;48.510;8.872;2022-09-12T08:20:54;7.50;;;6.67;;
16310;SDS011;8264;48.510;8.872;2022-09-12T08:23:22;8.17;;;7.47;;
16310;SDS011;8264;48.510;8.872;2022-09-12T08:25:49;8.20;;;7.47;;
16310;SDS011;8264;48.510;8.872;2022-09-12T08:28:15;7.50;;;6.80;;
16310;SDS011;8264;48.510;8.872;2022-09-12T08:30:43;8.50;;;7.60;;
16310;SDS011;8264;48.510;8.872;2022-09-12T08:33:09;8.97;;;7.20;;
16310;SDS011;8264;48.510;8.872;2022-09-12T08:35:36;8.20;;;6.57;;
16310;SDS011;8264;48.510;8.872;2022-09-12T08:38:02;7.47;;;6.77;;
16310;SDS011;8264;48.510;8.872;2022-09-12T08:40:29;8.13;;;7.53;;
16310;SDS011;8264;48.510;8.872;2022-09-12T08:42:56;6.80;;;6.17;;
16310;SDS011;8264;48.510;8.872;2022-09-12T08:45:28;7.43;;;5.93;;
16310;SDS011;8264;48.510;8.872;2022-09-12T08:48:00;6.30;;;5.80;;
16310;SDS011;8264;48.510;8.872;2022-09-12T08:50:28;6.93;;;6.23;;
16310;SDS011;8264;48.510;8.872;2022-09-12T08:52:55;8.27;;;6.20;;
16310;SDS011;8264;48.510;8.872;2022-09-12T08:55:25;6.77;;;6.07;;
16310;SDS011;8264;48.510;8.872;2022-09-12T08:57:55;11.03;;;5.53;;
16310;SDS011;8264;48.510;8.872;2022-09-12T09:00:22;6.47;;;5.90;;
16310;SDS011;8264;48.510;8.872;2022-09-12T09:02:53;8.93;;;5.93;;
16310;SDS011;8264;48.510;8.872;2022-09-12T09:05:35;6.50;;;5.90;;
16310;SDS011;8264;48.510;8.872;2022-09-12T09:08:11;6.30;;;5.30;;
16310;SDS011;8264;48.510;8.872;2022-09-12T09:10:47;6.10;;;5.50;;
16310;SDS011;8264;48.510;8.872;2022-09-12T09:13:21;5.33;;;4.83;;
16310;SDS011;8264;48.510;8.872;2022-09-12T09:16:11;6.47;;;5.87;;
16310;SDS011;8264;48.510;8.872;2022-09-12T09:18:42;6.27;;;5.20;;
16310;SDS011;8264;48.510;8.872;2022-09-12T09:21:11;7.23;;;6.57;;
16310;SDS011;8264;48.510;8.872;2022-09-12T09:23:41;5.77;;;5.27;;
16310;SDS011;8264;48.510;8.872;2022-09-12T09:26:11;5.33;;;4.93;;
16310;SDS011;8264;48.510;8.872;2022-09-12T09:28:41;8.93;;;5.80;;
16310;SDS011;8264;48.510;8.872;2022-09-12T09:31:11;7.00;;;6.37;;
16310;SDS011;8264;48.510;8.872;2022-09-12T09:33:41;6.33;;;5.73;;
16310;SDS011;8264;48.510;8.872;2022-09-12T09:36:11;5.90;;;5.00;;
16310;SDS011;8264;48.510;8.872;2022-09-12T09:38:45;6.17;;;5.47;;
16310;SDS011;8264;48.510;8.872;2022-09-12T09:41:19;5.60;;;5.10;;
16310;SDS011;8264;48.510;8.872;2022-09-12T09:44:03;5.67;;;5.17;;
16310;SDS011;8264;48.510;8.872;2022-09-12T09:46:29;5.80;;;5.30;;
16310;SDS011;8264;48.510;8.872;2022-09-12T09:48:58;3.53;;;3.23;;
16310;SDS011;8264;48.510;8.872;2022-09-12T09:51:28;3.93;;;3.53;;
16310;SDS011;8264;48.510;8.872;2022-09-12T09:54:00;2.80;;;2.30;;
16310;SDS011;8264;48.510;8.872;2022-09-12T09:56:29;3.20;;;2.90;;
16310;SDS011;8264;48.510;8.872;2022-09-12T09:59:07;3.00;;;2.70;;
16310;SDS011;8264;48.510;8.872;2022-09-12T10:01:34;2.43;;;2.23;;
16310;SDS011;8264;48.510;8.872;2022-09-12T10:04:03;4.03;;;3.40;;
16310;SDS011;8264;48.510;8.872;2022-09-12T10:06:29;3.47;;;2.20;;
16310;SDS011;8264;48.510;8.872;2022-09-12T10:09:05;2.07;;;1.87;;
16310;SDS011;8264;48.510;8.872;2022-09-12T10:11:43;2.40;;;2.20;;
16310;SDS011;8264;48.510;8.872;2022-09-12T10:14:24;3.13;;;1.93;;
16310;SDS011;8264;48.510;8.872;2022-09-12T10:16:55;3.40;;;1.80;;
16310;SDS011;8264;48.510;8.872;2022-09-12T10:19:32;2.30;;;2.10;;
16310;SDS011;8264;48.510;8.872;2022-09-12T10:22:00;1.90;;;1.50;;
16310;SDS011;8264;48.510;8.872;2022-09-12T10:24:29;2.67;;;2.43;;
16310;SDS011;8264;48.510;8.872;2022-09-12T10:27:04;2.47;;;2.27;;
16310;SDS011;8264;48.510;8.872;2022-09-12T10:29:33;2.60;;;2.40;;
16310;SDS011;8264;48.510;8.872;2022-09-12T10:32:05;3.27;;;2.17;;
16310;SDS011;8264;48.510;8.872;2022-09-12T10:34:35;2.23;;;1.83;;
16310;SDS011;8264;48.510;8.872;2022-09-12T10:37:04;1.93;;;1.73;;
16310;SDS011;8264;48.510;8.872;2022-09-12T10:39:32;1.93;;;1.73;;
16310;SDS011;8264;48.510;8.872;2022-09-12T10:42:00;2.17;;;1.73;;
16310;SDS011;8264;48.510;8.872;2022-09-12T10:44:27;1.50;;;1.40;;
16310;SDS011;8264;48.510;8.872;2022-09-12T10:46:55;2.07;;;1.63;;
16310;SDS011;8264;48.510;8.872;2022-09-12T10:49:23;2.73;;;2.30;;
16310;SDS011;8264;48.510;8.872;2022-09-12T10:51:53;1.50;;;1.40;;
16310;SDS011;8264;48.510;8.872;2022-09-12T10:54:21;1.60;;;1.50;;
16310;SDS011;8264;48.510;8.872;2022-09-12T10:56:59;1.90;;;1.70;;
16310;SDS011;8264;48.510;8.872;2022-09-12T10:59:37;1.97;;;1.87;;
16310;SDS011;8264;48.510;8.872;2022-09-12T11:02:14;2.10;;;1.90;;
16310;SDS011;8264;48.510;8.872;2022-09-12T11:04:49;2.00;;;1.90;;
16310;SDS011;8264;48.510;8.872;2022-09-12T11:07:27;1.70;;;1.40;;
16310;SDS011;8264;48.510;8.872;2022-09-12T11:10:02;1.50;;;1.40;;
16310;SDS011;8264;48.510;8.872;2022-09-12T11:12:38;2.67;;;1.83;;
16310;SDS011;8264;48.510;8.872;2022-09-12T11:15:10;2.03;;;1.50;;
16310;SDS011;8264;48.510;8.872;2022-09-12T11:17:49;4.03;;;1.57;;
16310;SDS011;8264;48.510;8.872;2022-09-12T11:23:30;1.37;;;1.23;;
16310;SDS011;8264;48.510;8.872;2022-09-12T11:26:21;1.63;;;1.30;;
16310;SDS011;8264;48.510;8.872;2022-09-12T11:28:54;2.37;;;1.60;;
16310;SDS011;8264;48.510;8.872;2022-09-12T11:31:32;3.13;;;1.20;;
16310;SDS011;8264;48.510;8.872;2022-09-12T11:34:28;1.10;;;1.00;;
16310;SDS011;8264;48.510;8.872;2022-09-12T11:37:04;1.43;;;1.00;;
16310;SDS011;8264;48.510;8.872;2022-09-12T11:39:39;16.47;;;14.77;;
16310;SDS011;8264;48.510;8.872;2022-09-12T11:42:09;2.40;;;2.00;;
16310;SDS011;8264;48.510;8.872;2022-09-12T11:44:39;1.37;;;1.20;;
16310;SDS011;8264;48.510;8.872;2022-09-12T11:47:09;1.50;;;1.30;;
16310;SDS011;8264;48.510;8.872;2022-09-12T11:49:38;1.63;;;1.53;;
16310;SDS011;8264;48.510;8.872;2022-09-12T11:52:10;3.20;;;1.30;;
16310;SDS011;8264;48.510;8.872;2022-09-12T11:54:40;3.13;;;1.40;;
16310;SDS011;8264;48.510;8.872;2022-09-12T11:57:10;2.00;;;1.20;;
16310;SDS011;8264;48.510;8.872;2022-09-12T11:59:42;3.47;;;2.20;;
16310;SDS011;8264;48.510;8.872;2022-09-12T12:02:12;1.90;;;1.40;;
16310;SDS011;8264;48.510;8.872;2022-09-12T12:04:43;1.87;;;1.30;;
16310;SDS011;8264;48.510;8.872;2022-09-12T12:07:20;2.20;;;1.33;;
16310;SDS011;8264;48.510;8.872;2022-09-12T12:09:49;2.10;;;1.30;;
16310;SDS011;8264;48.510;8.872;2022-09-12T12:12:18;2.43;;;1.30;;
16310;SDS011;8264;48.510;8.872;2022-09-12T12:14:48;1.50;;;1.40;;
16310;SDS011;8264;48.510;8.872;2022-09-12T12:17:16;4.17;;;2.10;;
16310;SDS011;8264;48.510;8.872;2022-09-12T12:19:44;3.10;;;2.10;;
16310;SDS011;8264;48.510;8.872;2022-09-12T12:22:14;1.70;;;1.50;;
16310;SDS011;8264;48.510;8.872;2022-09-12T12:25:04;1.47;;;1.37;;
16310;SDS011;8264;48.510;8.872;2022-09-12T12:27:46;1.67;;;1.53;;
16310;SDS011;8264;48.510;8.872;2022-09-12T12:36:28;1.43;;;1.33;;
16310;SDS011;8264;48.510;8.872;2022-09-12T12:45:58;1.90;;;1.40;;
16310;SDS011;8264;48.510;8.872;2022-09-12T12:48:29;1.27;;;1.17;;
16310;SDS011;8264;48.510;8.872;2022-09-12T12:54:27;1.20;;;1.10;;
16310;SDS011;8264;48.510;8.872;2022-09-12T12:57:02;2.77;;;1.70;;
16310;SDS011;8264;48.510;8.872;2022-09-12T12:59:31;1.47;;;1.37;;
16310;SDS011;8264;48.510;8.872;2022-09-12T13:01:59;3.33;;;1.23;;
16310;SDS011;8264;48.510;8.872;2022-09-12T13:04:26;1.30;;;1.20;;
16310;SDS011;8264;48.510;8.872;2022-09-12T13:06:55;1.40;;;1.10;;
16310;SDS011;8264;48.510;8.872;2022-09-12T13:09:24;1.67;;;1.23;;
16310;SDS011;8264;48.510;8.872;2022-09-12T13:11:56;3.57;;;1.40;;
16310;SDS011;8264;48.510;8.872;2022-09-12T13:14:35;1.40;;;1.30;;
16310;SDS011;8264;48.510;8.872;2022-09-12T13:17:14;1.40;;;1.30;;
16310;SDS011;8264;48.510;8.872;2022-09-12T13:19:45;2.90;;;1.17;;
16310;SDS011;8264;48.510;8.872;2022-09-12T13:22:12;1.70;;;1.10;;
16310;SDS011;8264;48.510;8.872;2022-09-12T13:24:41;2.90;;;1.30;;
16310;SDS011;8264;48.510;8.872;2022-09-12T13:27:15;1.93;;;1.33;;
16310;SDS011;8264;48.510;8.872;2022-09-12T13:29:43;1.30;;;1.00;;
16310;SDS011;8264;48.510;8.872;2022-09-12T13:32:09;1.60;;;1.10;;
16310;SDS011;8264;48.510;8.872;2022-09-12T13:34:39;1.30;;;1.20;;
16310;SDS011;8264;48.510;8.872;2022-09-12T13:37:18;1.73;;;1.20;;
16310;SDS011;8264;48.510;8.872;2022-09-12T13:39:54;1.40;;;1.20;;
16310;SDS011;8264;48.510;8.872;2022-09-12T13:42:31;2.30;;;1.10;;
16310;SDS011;8264;48.510;8.872;2022-09-12T13:45:05;2.03;;;1.00;;
16310;SDS011;8264;48.510;8.872;2022-09-12T13:47:37;2.83;;;1.33;;
16310;SDS011;8264;48.510;8.872;2022-09-12T13:50:07;1.20;;;1.10;;
16310;SDS011;8264;48.510;8.872;2022-09-12T13:52:40;1.30;;;1.20;;
16310;SDS011;8264;48.510;8.872;2022-09-12T13:55:14;1.40;;;1.30;;
16310;SDS011;8264;48.510;8.872;2022-09-12T13:57:54;1.40;;;1.30;;
16310;SDS011;8264;48.510;8.872;2022-09-12T14:00:22;1.20;;;1.10;;
16310;SDS011;8264;48.510;8.872;2022-09-12T14:02:48;2.10;;;1.37;;
16310;SDS011;8264;48.510;8.872;2022-09-12T14:05:36;3.07;;;1.10;;
16310;SDS011;8264;48.510;8.872;2022-09-12T14:08:04;1.97;;;1.30;;
16310;SDS011;8264;48.510;8.872;2022-09-12T14:10:33;2.00;;;1.30;;
16310;SDS011;8264;48.510;8.872;2022-09-12T14:13:01;1.63;;;1.17;;
16310;SDS011;8264;48.510;8.872;2022-09-12T14:15:30;2.40;;;1.10;;
16310;SDS011;8264;48.510;8.872;2022-09-12T14:17:58;1.10;;;1.00;;
16310;SDS011;8264;48.510;8.872;2022-09-12T14:20:26;1.17;;;1.07;;
16310;SDS011;8264;48.510;8.872;2022-09-12T14:22:57;2.37;;;1.10;;
16310;SDS011;8264;48.510;8.872;2022-09-12T14:25:25;1.40;;;1.03;;
16310;SDS011;8264;48.510;8.872;2022-09-12T14:27:54;2.73;;;1.07;;
16310;SDS011;8264;48.510;8.872;2022-09-12T14:30:22;1.40;;;1.10;;
16310;SDS011;8264;48.510;8.872;2022-09-12T14:35:46;1.13;;;1.00;;
16310;SDS011;8264;48.510;8.872;2022-09-12T14:38:19;4.43;;;1.20;;
16310;SDS011;8264;48.510;8.872;2022-09-12T14:40:49;2.13;;;1.10;;
16310;SDS011;8264;48.510;8.872;2022-09-12T14:43:19;1.43;;;1.10;;
16310;SDS011;8264;48.510;8.872;2022-09-12T14:45:52;2.03;;;1.30;;
16310;SDS011;8264;48.510;8.872;2022-09-12T14:48:20;1.30;;;1.20;;
16310;SDS011;8264;48.510;8.872;2022-09-12T14:50:50;3.03;;;1.50;;
16310;SDS011;8264;48.510;8.872;2022-09-12T14:53:23;1.43;;;1.20;;
16310;SDS011;8264;48.510;8.872;2022-09-12T14:55:52;1.37;;;1.20;;
16310;SDS011;8264;48.510;8.872;2022-09-12T14:58:23;1.83;;;1.07;;
16310;SDS011;8264;48.510;8.872;2022-09-12T15:00:52;1.30;;;1.20;;
16310;SDS011;8264;48.510;8.872;2022-09-12T15:03:24;1.40;;;1.13;;
16310;SDS011;8264;48.510;8.872;2022-09-12T15:05:55;2.43;;;1.17;;
16310;SDS011;8264;48.510;8.872;2022-09-12T15:08:23;1.70;;;1.10;;
16310;SDS011;8264;48.510;8.872;2022-09-12T15:10:49;1.20;;;1.10;;
16310;SDS011;8264;48.510;8.872;2022-09-12T15:13:17;1.83;;;1.10;;
16310;SDS011;8264;48.510;8.872;2022-09-12T15:15:47;1.40;;;1.17;;
16310;SDS011;8264;48.510;8.872;2022-09-12T15:18:15;1.30;;;1.10;;
16310;SDS011;8264;48.510;8.872;2022-09-12T15:20:42;1.20;;;1.10;;
16310;SDS011;8264;48.510;8.872;2022-09-12T15:23:13;3.00;;;1.20;;
16310;SDS011;8264;48.510;8.872;2022-09-12T15:25:43;1.13;;;0.93;;
16310;SDS011;8264;48.510;8.872;2022-09-12T15:28:12;1.10;;;1.00;;
16310;SDS011;8264;48.510;8.872;2022-09-12T15:30:41;0.90;;;0.90;;
16310;SDS011;8264;48.510;8.872;2022-09-12T15:33:08;1.13;;;0.90;;
16310;SDS011;8264;48.510;8.872;2022-09-12T15:35:34;2.43;;;1.10;;
16310;SDS011;8264;48.510;8.872;2022-09-12T15:38:01;2.20;;;1.30;;
16310;SDS011;8264;48.510;8.872;2022-09-12T15:40:27;2.20;;;1.00;;
16310;SDS011;8264;48.510;8.872;2022-09-12T15:42:55;3.37;;;1.10;;